Station: Bradshaw-Angallari Valley (Defence)

  Atmospheric Gas Attenuation - ITU Rec 676-11   --------------- db/100km ---------------
Date Time Temp RH % AH g/m3 Dew Point Wind Direction Speed kph Gust kph Barometer mB Rainfall Since 9am 24GHz 47GHz 76GHz 122GHz 134GHz 241GHz
11 21:10 32.6 42 14.64 18.3 4 4 1013.1 0 31.1 29.5 52.4 138.4 146.1 507.7
11 21:00 32.7 40 14.02 17.7 6 7 1009.6 0 29.9 28.5 49.9 131.7 138.0 479.3
11 20:50 32.9 41 14.52 17.9 6 7 1013.1 0 30.9 29.3 51.8 136.7 144.1 500.7
11 20:40 33.1 39 13.96 17.6 4 4 1013.1 0 29.7 28.4 49.6 130.9 137.0 475.7
11 20:30 33.2 39 14.04 17.4 7 13 1009.2 0 29.9 28.3 49.6 131.0 137.3 477.1
11 20:20 32.9 41 14.52 17.9 7 7 1013.1 0 30.9 29.3 51.8 136.7 144.1 500.7
11 20:10 33.2 39 14.04 17.7 6 7 1013.1 0 29.9 28.4 49.8 131.5 137.8 478.5
11 20:00 33.1 41 14.68 18.1 7 13 1009.1 0 31.2 29.3 52.1 137.5 145.3 504.8
11 19:50 32.8 42 14.8 18.5 7 9 1013.1 0 31.5 29.7 52.9 139.7 147.8 513.4
11 19:40 32.3 44 15.1 18.8 7 9 1013.1 0 32.1 30.4 54.4 143.6 152.4 529.7
11 19:30 31.9 51 17.13 20.5 4 6 1008.7 0 36.4 33.6 62.5 165.2 179.0 622.3
11 19:20 32 47 15.87 19.6 4 4 1013.1 0 33.7 31.7 57.6 152.1 162.8 565.9
11 19:10 32.4 45 15.52 19.2 2 4 1013.1 0 33.0 31.0 55.9 147.8 157.5 547.5
11 19:00 32.7 44 15.42 19.2 4 6 1008.4 0 32.8 30.5 55.1 145.6 155.1 539.2
11 18:50 33.2 40 14.4 18.1 4 4 1013.1 0 30.6 29.0 51.1 135.0 142.1 493.7
11 18:40 33.6 39 14.34 18.1 4 4 1013.1 0 30.5 28.8 50.7 133.8 140.7 488.7
11 18:30 34 40 15.02 18.5 4 6 1008 0 31.8 29.5 52.7 139.2 147.6 513.1
11 18:20 34.4 37 14.18 17.6 4 6 1013.1 0 30.1 28.3 49.6 130.9 137.4 477.2
11 18:10 34.8 34 13.31 17 6 6 1013.1 0 28.3 26.9 46.2 122.0 126.5 439.3
11 18:00 35.5 33 13.4 16.8 4 6 1008 0 28.4 26.6 45.9 121.2 125.9 437.4
11 17:50 36 32 13.33 17.1 4 6 1013.1 0 28.2 26.6 45.6 120.4 124.8 433.7
11 17:40 35.7 32 13.13 16.9 4 6 1013.1 0 27.8 26.4 45.1 119.0 123.0 427.3
11 17:30 35.6 32 13.06 16.4 6 9 1007.7 0 27.7 26.1 44.7 117.9 121.9 423.3
11 17:20 36.2 29 12.21 15.8 6 7 1013.1 0 25.9 25.0 41.7 109.9 112.0 388.9
11 17:10 37.4 28 12.54 16.3 6 7 1013.1 0 26.5 25.1 42.2 111.3 114.0 395.8
11 17:00 37.6 25 11.31 14.8 9 15 1007.4 0 24.0 23.2 37.9 99.8 100.1 347.2
11 16:50 37.2 26 11.52 15 9 11 1013.1 0 24.5 23.8 39.0 102.6 103.3 358.3
11 16:40 38.1 27 12.53 16.4 6 7 1013.1 0 26.5 24.9 41.8 110.3 112.9 392.1
11 16:30 37.3 29 12.92 16.3 4 7 1007.3 0 27.3 25.4 43.3 114.2 117.8 409.0
11 16:20 36.4 29 12.33 16 4 6 1013.1 0 26.1 25.1 42.0 110.7 113.1 392.5
11 16:10 37 27 11.84 14.9 9 11 1013.1 0 25.1 24.3 40.1 105.6 106.9 371.1
11 16:00 37.9 27 12.4 16.2 4 11 1007.5 0 26.2 24.6 41.3 108.8 111.3 386.4
11 15:50 37.3 27 12.03 15.7 4 4 1013.1 0 25.5 24.4 40.6 106.9 108.6 376.9
11 15:40 37.6 28 12.67 16.5 6 7 1013.1 0 26.8 25.2 42.5 112.2 115.1 399.8
11 15:30 36.9 28 12.22 15.9 6 11 1007.7 0 25.9 24.6 41.2 108.6 110.7 384.3
11 15:20 37.4 29 12.98 16.8 9 11 1013.1 0 27.4 25.7 43.7 115.2 118.8 412.7
11 15:10 37.6 27 12.21 15.9 9 11 1013.1 0 25.8 24.6 41.0 108.1 110.1 382.3
11 15:00 38.2 28 13.06 16.5 7 13 1007.8 0 27.5 25.4 43.3 114.3 118.0 410.1
11 14:50 38.5 28 13.26 17.3 9 15 1013.1 0 27.9 25.8 44.0 116.2 120.3 417.9
11 14:40 37.9 27 12.4 16.2 7 11 1013.1 0 26.2 24.8 41.5 109.4 111.8 388.1
11 14:30 37.8 27 12.34 16.1 7 13 1008.2 0 26.1 24.6 41.1 108.5 110.8 384.8
11 14:20 37.7 27 12.28 16 6 7 1013.1 0 26.0 24.7 41.2 108.6 110.8 384.5
11 14:10 38 28 12.93 16.8 4 6 1013.1 0 27.3 25.5 43.2 113.9 117.4 407.8
11 14:00 37 29 12.72 16.5 9 15 1008.6 0 26.9 25.3 42.8 113.0 116.1 403.2
11 13:50 36.8 29 12.59 16.3 11 13 1013.1 0 26.7 25.3 42.7 112.5 115.4 400.6
11 13:40 37.5 29 13.05 16.9 6 7 1013.1 0 27.5 25.8 43.9 115.7 119.4 414.9
11 13:30 37 29 12.72 16.5 4 9 1008.9 0 26.9 25.3 42.8 113.0 116.1 403.3
11 13:20 37.7 30 13.64 17.6 6 9 1013.1 0 28.7 26.5 45.8 120.7 125.7 436.9
11 13:10 36.6 30 12.89 16.7 9 9 1013.1 0 27.3 25.8 43.8 115.5 119.0 413.2
11 13:00 36.9 32 13.96 17.5 6 13 1009.4 0 29.5 27.1 47.1 124.5 130.2 452.6
11 12:50 36.8 32 13.89 17.8 6 7 1013.1 0 29.3 27.1 47.1 124.4 130.0 451.6
11 12:40 36 32 13.33 17.1 2 4 1013.1 0 28.2 26.6 45.6 120.4 124.8 433.7
11 12:30 36.3 32 13.54 17.4 7 13 1009.7 0 28.6 26.7 46.0 121.5 126.4 439.3
11 12:20 36.2 34 14.31 18.3 6 7 1013.1 0 30.2 27.9 49.0 129.3 135.8 472.0
11 12:10 36.1 33 13.82 17.7 6 7 1013.1 0 29.2 27.2 47.3 124.8 130.3 452.7
11 12:00 35.5 35 14.21 17.7 6 15 1010.4 0 30.1 27.9 48.9 129.1 135.5 471.0
11 11:50 35.6 35 14.28 18.2 6 6 1013.1 0 30.2 28.1 49.2 129.9 136.5 474.3
11 11:40 35.3 37 14.87 18.8 0 0 1013.1 0 31.4 29.0 51.5 136.1 144.0 500.5
11 11:30 34.9 39 15.35 18.9 6 9 1010.8 0 32.4 29.8 53.5 141.2 150.3 522.5
11 11:20 34.5 37 14.26 18.1 4 6 1013.1 0 30.2 28.4 49.8 131.5 138.1 479.9
11 11:10 34 39 14.64 18.4 2 4 1013.1 0 31.0 29.1 51.5 136.0 143.6 498.9
11 11:00 34.2 40 15.17 18.7 2 6 1011 0 32.1 29.7 53.3 140.7 149.4 519.4
11 10:50 33.7 42 15.52 19.3 6 7 1013.1 0 32.9 30.5 55.0 145.4 155.0 538.6
11 10:40 33.3 43 15.56 19.3 6 7 1013.1 0 33.0 30.7 55.5 146.5 156.3 543.1
11 10:30 33 43 15.31 19.1 4 9 1011.2 0 32.5 30.4 54.6 144.3 153.5 533.5
11 10:20 32.4 46 15.87 19.6 4 7 1013.1 0 33.7 31.5 57.3 151.4 162.0 563.1
11 10:10 32.3 46 15.78 19.2 9 9 1013.1 0 33.5 31.4 57.0 150.6 161.1 559.8
11 10:00 32.4 48 16.56 20.3 4 9 1011.1 0 35.1 32.6 59.9 158.4 170.7 593.3
11 09:50 31.8 46 15.37 19 6 6 1013.1 0 32.7 31.0 55.8 147.3 156.8 545.0
11 09:40 31.3 52 16.92 20.5 4 6 1013.1 0 36.0 33.6 62.3 164.8 178.2 619.3
11 09:30 31.1 51 16.41 19.8 4 7 1011 0 34.9 32.8 60.3 159.4 171.6 596.3
11 09:20 31.2 53 17.15 20.7 4 4 1013.1 0 36.5 34.1 63.4 167.5 181.5 630.8
11 09:10 30.7 52 16.38 20 6 7 1013.1 0 34.9 33.0 60.6 160.1 172.3 598.8
11 09:00 30.2 55 16.86 20.2 4 7 1010.9 0 36.0 33.9 62.8 166.1 179.6 624.2
11 08:50 30.1 56 17.08 20.6 2 2 1013.1 0 36.4 34.4 64.0 169.1 183.1 636.5
11 08:40 29.7 57 17.01 20.5 4 6 1013.1 0 36.3 34.4 64.0 169.2 183.1 636.4
11 08:30 29.4 61 17.91 21.1 2 6 1010.9 0 38.2 36.0 67.9 179.7 196.1 681.5
11 08:20 29 64 18.39 21.5 4 6 1013.1 0 39.3 37.1 70.5 186.5 204.3 709.9
11 08:10 28.6 64 17.99 21.3 4 4 1013.1 0 38.5 36.6 69.1 182.8 199.6 693.6
11 08:00 27.4 68 17.89 21 0 0 1010.6 0 38.4 36.8 69.6 184.2 201.0 698.3
11 07:50 26.2 72 17.73 20.9 0 0 1013.1 0 38.1 37.1 70.2 185.5 202.2 702.4
11 07:40 25.5 76 17.99 21.1 2 2 1013.1 0 38.8 37.9 72.0 190.4 208.0 722.3
11 07:30 24.8 80 18.21 21.1 6 6 1010.4 0 39.3 38.5 73.5 194.4 212.8 739.2
11 07:20 24.1 83 18.16 21 4 4 1013.1 0 39.3 38.9 74.1 196.0 214.5 744.8
11 07:10 24 82 17.84 20.7 0 0 1013.1 0 38.6 38.3 72.7 192.3 209.9 728.8
11 07:00 24.2 80 17.6 20.5 0 0 1010.1 0 38.1 37.7 71.2 188.4 205.3 712.7
11 06:50 24.3 80 17.7 20.6 0 0 1013.1 0 38.3 37.9 71.8 189.8 206.9 718.5
11 06:40 24.4 79 17.58 20.5 0 0 1013.1 0 38.0 37.7 71.1 188.1 204.8 711.3
11 06:30 24.7 79 17.88 20.8 0 0 1010 0 38.6 37.9 72.1 190.6 208.1 722.6
11 06:20 25 78 17.96 20.9 0 0 1013.1 0 38.8 38.1 72.3 191.3 208.9 725.5
11 06:10 25.3 75 17.56 20.7 2 2 1013.1 0 37.9 37.2 70.2 185.7 202.1 701.9
11 06:00 25.6 74 17.62 20.6 2 4 1009.7 0 38.0 37.1 70.0 185.1 201.7 700.6
11 05:50 25.7 75 17.96 20.9 0 0 1013.1 0 38.7 37.8 71.7 189.5 207.0 718.9
11 05:40 25.7 75 17.96 20.9 0 0 1013.1 0 38.7 37.8 71.7 189.5 207.0 718.9
11 04:50 26.1 72 17.63 20.8 0 0 1013.1 0 37.9 37.0 69.8 184.6 201.0 698.2
11 04:40 26.1 75 18.36 21.3 0 0 1013.1 0 39.5 38.3 73.1 193.4 211.8 735.8
11 04:30 26 76 18.5 21.4 0 0 1009.3 0 39.8 38.5 73.6 194.8 213.6 742.1
11 04:20 25.9 74 17.92 20.9 0 0 1013.1 0 38.6 37.6 71.3 188.5 205.8 714.9
11 04:10 25.8 76 18.3 21.2 2 2 1013.1 0 39.4 38.4 73.1 193.4 211.8 735.6
11 04:00 25.5 78 18.47 21.4 2 2 1009.2 0 39.8 38.6 74.0 195.7 214.6 745.4

Last Refresh: 11-Apr-2021 21:22:25

Bureau of Meteorology